Time;durP1;ratioP1;P1;durP2;ratioP2;P2;SDS_P1;SDS_P2;PMS_P1;PMS_P2;Temp;Humidity;BMP_temperature;BMP_pressure;BME280_temperature;BME280_humidity;BME280_pressure;Samples;Min_cycle;Max_cycle;Signal;HPM_P1;HPM_P2
2023/06/19 00:00:16;;;;;;;7.28;5.93;;;21.10;99.90;;;;;;4993845;28;20128;-87
2023/06/19 00:02:43;;;;;;;10.77;6.57;;;20.70;99.90;;;;;;4993713;28;20494;-86
2023/06/19 00:05:10;;;;;;;7.50;6.07;;;21.30;99.90;;;;;;5006746;28;20730;-87
2023/06/19 00:07:44;;;;;;;8.07;5.97;;;21.10;99.90;;;;;;5007678;28;20057;-87
2023/06/19 00:10:13;;;;;;;7.22;5.75;;;21.00;99.90;;;;;;4988085;28;20033;-88
2023/06/19 00:12:45;;;;;;;9.88;6.05;;;21.10;99.90;;;;;;4994754;28;20042;-86
2023/06/19 00:15:14;;;;;;;7.85;5.63;;;21.00;99.90;;;;;;4991245;28;20045;-87
2023/06/19 00:17:42;;;;;;;8.27;5.70;;;20.80;99.90;;;;;;4988433;28;20576;-86
2023/06/19 00:20:14;;;;;;;9.27;5.82;;;21.00;99.90;;;;;;5006451;28;20049;-86
2023/06/19 00:22:41;;;;;;;8.45;5.65;;;21.10;99.70;;;;;;5004580;28;20507;-86
2023/06/19 00:25:07;;;;;;;6.60;5.78;;;21.00;99.10;;;;;;5017225;28;20077;-87
2023/06/19 00:27:35;;;;;;;6.88;6.28;;;21.20;99.00;;;;;;5005085;28;20049;-87
2023/06/19 00:30:08;;;;;;;7.28;6.40;;;21.60;98.80;;;;;;4993295;28;20042;-87
2023/06/19 00:32:46;;;;;;;5.63;5.13;;;21.20;98.30;;;;;;5013373;28;20072;-86
2023/06/19 00:35:15;;;;;;;7.13;6.22;;;21.30;98.20;;;;;;5008730;28;20393;-86
2023/06/19 00:37:44;;;;;;;10.32;6.38;;;21.30;98.10;;;;;;5013721;28;20038;-86
2023/06/19 00:40:20;;;;;;;9.32;5.95;;;21.30;97.60;;;;;;4997142;28;20037;-86
2023/06/19 00:42:48;;;;;;;8.43;5.65;;;21.40;97.50;;;;;;5017608;28;20038;-86
2023/06/19 00:45:14;;;;;;;9.50;5.55;;;21.50;97.40;;;;;;5009617;28;20452;-86
2023/06/19 00:47:40;;;;;;;5.78;5.13;;;21.40;97.30;;;;;;5028511;28;20037;-87
2023/06/19 00:50:06;;;;;;;6.50;5.40;;;21.90;97.30;;;;;;4995382;28;20088;-86
2023/06/19 00:52:32;;;;;;;6.45;5.80;;;21.50;97.20;;;;;;5005732;28;20081;-86
2023/06/19 00:54:58;;;;;;;9.10;5.70;;;21.50;96.40;;;;;;5028457;28;20503;-85
2023/06/19 00:57:30;;;;;;;5.65;5.15;;;21.60;97.00;;;;;;5012981;28;20065;-86
2023/06/19 00:59:57;;;;;;;5.93;5.35;;;21.60;96.40;;;;;;5007322;28;20030;-85
2023/06/19 01:02:24;;;;;;;5.15;4.65;;;21.70;96.80;;;;;;4995071;28;20069;-86
2023/06/19 01:04:53;;;;;;;6.28;5.57;;;21.60;97.00;;;;;;5010193;28;20041;-86
2023/06/19 01:07:28;;;;;;;5.72;4.85;;;21.80;96.90;;;;;;4993918;28;20031;-86
2023/06/19 01:10:01;;;;;;;7.05;5.57;;;21.60;96.80;;;;;;5009505;28;20042;-86
2023/06/19 01:12:33;;;;;;;5.95;5.40;;;21.60;97.00;;;;;;5009330;28;20444;-86
2023/06/19 01:15:02;;;;;;;6.93;5.22;;;21.40;97.00;;;;;;5008118;28;20038;-86
2023/06/19 01:17:29;;;;;;;9.13;5.07;;;21.50;97.20;;;;;;5012721;28;20091;-85
2023/06/19 01:19:59;;;;;;;6.30;5.32;;;21.50;97.30;;;;;;5012243;28;20057;-86
2023/06/19 01:22:29;;;;;;;5.45;4.90;;;21.40;97.20;;;;;;4976982;28;20137;-86
2023/06/19 01:24:55;;;;;;;6.88;5.20;;;21.40;96.70;;;;;;5008132;28;20042;-86
2023/06/19 01:27:25;;;;;;;5.85;4.82;;;21.20;96.80;;;;;;4988651;28;20393;-87
2023/06/19 01:29:53;;;;;;;8.27;5.20;;;21.50;96.60;;;;;;5029109;28;20053;-86
2023/06/19 01:33:06;;;;;;;7.20;5.50;;;21.60;96.40;;;;;;5007507;28;20075;-87
2023/06/19 01:35:35;;;;;;;7.78;5.40;;;21.50;96.60;;;;;;4981748;28;20058;-86
2023/06/19 01:38:02;;;;;;;7.18;5.50;;;21.50;96.80;;;;;;4981789;28;20092;-88
2023/06/19 01:40:32;;;;;;;7.68;5.78;;;21.50;97.40;;;;;;5004187;28;20046;-88
2023/06/19 01:43:00;;;;;;;5.70;5.10;;;21.50;97.60;;;;;;5011840;28;20057;-87
2023/06/19 01:45:28;;;;;;;6.03;5.32;;;22.00;97.40;;;;;;5003667;28;20034;-87
2023/06/19 01:47:56;;;;;;;8.13;5.35;;;21.40;97.40;;;;;;5007739;28;20056;-86
2023/06/19 01:50:31;;;;;;;13.30;5.20;;;21.40;97.10;;;;;;5008901;28;20092;-86
2023/06/19 01:52:57;;;;;;;5.63;5.10;;;21.60;96.80;;;;;;5001958;28;20073;-87
2023/06/19 01:55:38;;;;;;;5.88;4.80;;;21.60;97.00;;;;;;5024070;28;20037;-88
2023/06/19 01:58:04;;;;;;;5.47;5.00;;;21.50;97.30;;;;;;5022350;28;20045;-88
2023/06/19 02:00:32;;;;;;;16.48;5.60;;;21.50;98.00;;;;;;5010989;28;20451;-88
2023/06/19 02:02:57;;;;;;;9.32;5.28;;;21.40;97.50;;;;;;5010565;28;20041;-87
2023/06/19 02:05:23;;;;;;;6.00;5.43;;;21.60;97.80;;;;;;5008020;28;20042;-87
2023/06/19 02:07:49;;;;;;;7.88;5.18;;;21.50;97.70;;;;;;4989609;28;20054;-87
2023/06/19 02:10:17;;;;;;;9.55;5.90;;;21.40;97.70;;;;;;4999181;28;20077;-87
2023/06/19 02:12:45;;;;;;;7.13;5.35;;;21.20;97.60;;;;;;4990144;28;20120;-87
2023/06/19 02:15:11;;;;;;;7.50;5.63;;;21.40;97.90;;;;;;4992771;28;20038;-87
2023/06/19 02:17:36;;;;;;;10.50;5.78;;;21.50;98.00;;;;;;5018266;28;20500;-88
2023/06/19 02:20:14;;;;;;;8.63;6.00;;;21.40;97.90;;;;;;5010116;28;20042;-88
2023/06/19 02:22:56;;;;;;;10.65;5.75;;;21.40;97.40;;;;;;5007726;28;20052;-88
2023/06/19 02:25:22;;;;;;;6.35;5.32;;;21.50;97.40;;;;;;5019398;28;20499;-87
2023/06/19 02:27:50;;;;;;;5.85;5.25;;;21.70;97.40;;;;;;5011962;28;20073;-89
2023/06/19 02:30:16;;;;;;;8.40;5.82;;;21.50;97.20;;;;;;4985346;28;20034;-88
2023/06/19 02:32:42;;;;;;;7.97;5.68;;;21.50;97.30;;;;;;4989660;28;20041;-86
2023/06/19 02:35:10;;;;;;;10.13;5.00;;;21.80;97.20;;;;;;4994516;28;20038;-86
2023/06/19 02:37:36;;;;;;;6.32;5.43;;;21.80;97.20;;;;;;4989248;28;20037;-86
2023/06/19 02:40:04;;;;;;;8.13;5.18;;;21.80;97.50;;;;;;5011660;28;20037;-86
2023/06/19 02:42:33;;;;;;;5.65;4.95;;;21.70;97.40;;;;;;5007463;28;20456;-87
2023/06/19 02:45:05;;;;;;;8.40;5.32;;;21.80;97.50;;;;;;5007794;28;20531;-87
2023/06/19 02:47:31;;;;;;;7.03;5.20;;;21.70;97.60;;;;;;5003178;28;20038;-88
2023/06/19 02:50:04;;;;;;;7.55;6.15;;;21.70;97.60;;;;;;5010789;28;20124;-87
2023/06/19 02:52:33;;;;;;;8.52;5.28;;;22.00;97.80;;;;;;5000770;28;20038;-86
2023/06/19 02:54:58;;;;;;;6.47;5.13;;;21.90;97.90;;;;;;4995356;28;20042;-88
2023/06/19 02:57:24;;;;;;;6.25;5.65;;;21.70;98.10;;;;;;4984090;28;20054;-86
2023/06/19 02:59:55;;;;;;;5.72;5.22;;;21.70;98.20;;;;;;4994476;28;20034;-88
2023/06/19 03:02:21;;;;;;;8.40;5.43;;;21.70;98.60;;;;;;5008455;28;20039;-86
2023/06/19 03:04:47;;;;;;;9.30;6.00;;;21.80;98.40;;;;;;5027919;28;20054;-87
2023/06/19 03:07:13;;;;;;;6.05;5.47;;;21.70;98.70;;;;;;4994584;28;20046;-87
2023/06/19 03:09:41;;;;;;;7.88;5.47;;;21.70;98.70;;;;;;4992649;28;20161;-86
2023/06/19 03:12:08;;;;;;;7.07;5.38;;;21.70;98.80;;;;;;4988757;28;20400;-87
2023/06/19 03:14:37;;;;;;;5.53;5.13;;;21.70;98.90;;;;;;5003888;28;20552;-87
2023/06/19 03:17:03;;;;;;;8.98;5.65;;;21.70;99.00;;;;;;5002634;28;20045;-86
2023/06/19 03:19:47;;;;;;;6.55;4.88;;;21.70;99.20;;;;;;4993820;28;20042;-88
2023/06/19 03:22:15;;;;;;;6.22;5.70;;;21.60;99.30;;;;;;4994928;28;20516;-86
2023/06/19 03:24:41;;;;;;;9.15;5.45;;;21.70;99.40;;;;;;5011324;28;20050;-87
2023/06/19 03:27:06;;;;;;;5.68;5.18;;;22.00;99.60;;;;;;5010971;28;20411;-87
2023/06/19 03:29:32;;;;;;;7.88;5.40;;;21.50;99.60;;;;;;4994748;28;20531;-87
2023/06/19 03:31:58;;;;;;;6.32;5.10;;;21.70;99.70;;;;;;4999568;28;20092;-86
2023/06/19 03:34:23;;;;;;;6.88;4.45;;;21.50;99.90;;;;;;4985715;28;20038;-87
2023/06/19 03:36:49;;;;;;;8.70;3.88;;;21.70;99.90;;;;;;5009466;28;20084;-87
2023/06/19 03:39:15;;;;;;;6.43;4.00;;;21.60;99.90;;;;;;5025168;28;20099;-87
2023/06/19 03:41:41;;;;;;;8.25;3.67;;;21.80;99.90;;;;;;5004454;28;20045;-86
2023/06/19 03:44:06;;;;;;;9.93;3.40;;;21.90;99.90;;;;;;5000111;28;20044;-85
2023/06/19 03:46:33;;;;;;;6.45;3.72;;;21.50;99.90;;;;;;4990186;28;20042;-86
2023/06/19 03:48:58;;;;;;;7.28;3.15;;;21.60;99.90;;;;;;5006082;28;20128;-85
2023/06/19 03:51:24;;;;;;;9.00;3.42;;;21.60;99.90;;;;;;4994968;28;20125;-86
2023/06/19 03:53:50;;;;;;;16.98;3.50;;;21.60;99.90;;;;;;5010834;28;20046;-85
2023/06/19 03:56:15;;;;;;;10.70;3.80;;;21.50;99.90;;;;;;5005378;28;20038;-85
2023/06/19 03:58:41;;;;;;;9.63;3.15;;;21.60;99.90;;;;;;4986481;28;20481;-85
2023/06/19 04:01:07;;;;;;;14.02;3.47;;;21.40;99.90;;;;;;5010089;28;20107;-86
2023/06/19 04:03:32;;;;;;;5.30;2.97;;;21.70;99.90;;;;;;4986007;28;20045;-86
2023/06/19 04:05:58;;;;;;;5.07;3.13;;;21.40;99.90;;;;;;5010151;28;20064;-85
2023/06/19 04:08:25;;;;;;;5.15;2.92;;;21.50;99.90;;;;;;4994094;28;20038;-87
2023/06/19 04:10:50;;;;;;;5.00;3.33;;;21.60;99.90;;;;;;4996169;28;20392;-86
2023/06/19 04:13:16;;;;;;;5.43;3.45;;;21.30;99.90;;;;;;5010538;28;20056;-86
2023/06/19 04:15:44;;;;;;;6.80;3.45;;;21.30;99.90;;;;;;4991582;28;20041;-85
2023/06/19 04:18:11;;;;;;;6.38;3.38;;;21.60;99.90;;;;;;4994364;28;20054;-85
2023/06/19 04:20:37;;;;;;;3.65;3.15;;;21.30;99.90;;;;;;5008387;28;20153;-86
2023/06/19 04:23:06;;;;;;;6.43;3.60;;;21.80;99.90;;;;;;4994255;28;20042;-85
2023/06/19 04:25:31;;;;;;;4.65;2.88;;;21.70;99.90;;;;;;5010581;28;20137;-86
2023/06/19 04:27:57;;;;;;;5.75;3.25;;;21.40;99.90;;;;;;5026972;28;20128;-86
2023/06/19 04:30:22;;;;;;;7.47;3.08;;;21.80;99.90;;;;;;5003037;28;20033;-86
2023/06/19 04:32:48;;;;;;;4.32;2.78;;;21.40;99.90;;;;;;4991670;28;20428;-85
2023/06/19 04:35:14;;;;;;;5.38;2.80;;;21.70;99.90;;;;;;4985337;28;20048;-85
2023/06/19 04:37:39;;;;;;;6.13;3.00;;;21.90;99.90;;;;;;5008343;28;20057;-86
2023/06/19 04:40:07;;;;;;;5.03;3.10;;;22.30;99.90;;;;;;4993413;28;20081;-86
2023/06/19 04:42:33;;;;;;;7.10;2.88;;;22.40;99.90;;;;;;4995185;28;20044;-87
2023/06/19 04:44:59;;;;;;;7.28;3.30;;;22.60;99.90;;;;;;4991813;28;20037;-85
2023/06/19 04:47:25;;;;;;;2.95;2.53;;;22.80;99.90;;;;;;5010853;28;20065;-84
2023/06/19 04:49:51;;;;;;;7.93;3.22;;;23.10;99.90;;;;;;4990930;28;20392;-84
2023/06/19 04:52:23;;;;;;;2.70;2.50;;;23.30;99.90;;;;;;5001286;28;20042;-86
2023/06/19 04:54:50;;;;;;;19.90;3.67;;;23.60;99.90;;;;;;4987296;28;20045;-86
2023/06/19 04:57:15;;;;;;;17.63;3.45;;;23.90;99.90;;;;;;5020170;28;20087;-83
2023/06/19 04:59:43;;;;;;;8.65;2.50;;;24.10;99.90;;;;;;5019158;28;20435;-84
2023/06/19 05:02:11;;;;;;;12.32;3.30;;;24.30;99.90;;;;;;4987399;28;20068;-85
2023/06/19 05:04:37;;;;;;;6.60;2.53;;;24.40;99.90;;;;;;4990332;28;20045;-85
2023/06/19 05:07:03;;;;;;;5.72;3.47;;;24.70;99.90;;;;;;5005704;28;20108;-86
2023/06/19 05:09:28;;;;;;;3.63;1.95;;;25.00;99.90;;;;;;5005254;28;20180;-83
2023/06/19 05:11:57;;;;;;;5.38;2.42;;;25.30;99.90;;;;;;5005777;28;20052;-85
2023/06/19 05:14:23;;;;;;;14.93;3.35;;;24.30;99.90;;;;;;5003818;28;20405;-84
2023/06/19 05:16:48;;;;;;;9.90;3.45;;;23.90;99.90;;;;;;4992334;28;20048;-86
2023/06/19 05:19:20;;;;;;;11.88;3.58;;;23.60;99.90;;;;;;5007157;28;20042;-86
2023/06/19 05:21:57;;;;;;;12.15;4.28;;;23.50;99.90;;;;;;5012437;28;20042;-86
2023/06/19 05:24:33;;;;;;;9.90;3.28;;;23.10;99.90;;;;;;5006953;28;20405;-85
2023/06/19 05:26:59;;;;;;;9.43;3.75;;;22.60;99.90;;;;;;5010167;28;20631;-85
2023/06/19 05:29:25;;;;;;;3.25;3.03;;;22.40;99.90;;;;;;5007847;28;20116;-83
2023/06/19 05:31:53;;;;;;;5.60;3.78;;;22.30;99.90;;;;;;5004813;28;20037;-85
2023/06/19 05:34:35;;;;;;;19.88;4.32;;;22.10;99.90;;;;;;4994603;28;20034;-84
2023/06/19 05:37:18;;;;;;;40.15;6.32;;;21.90;99.90;;;;;;5029113;28;20041;-86
2023/06/19 05:39:43;;;;;;;15.13;4.53;;;21.80;99.90;;;;;;5013216;28;20516;-86
2023/06/19 05:42:19;;;;;;;10.45;3.50;;;21.70;99.90;;;;;;5012547;28;20033;-85
2023/06/19 05:44:51;;;;;;;9.73;3.58;;;21.60;99.90;;;;;;5004906;28;20504;-85
2023/06/19 05:47:20;;;;;;;10.30;3.78;;;21.60;99.90;;;;;;4997512;28;20067;-85
2023/06/19 05:49:47;;;;;;;5.15;4.65;;;21.60;99.90;;;;;;4990156;28;20038;-86
2023/06/19 05:52:14;;;;;;;13.38;4.20;;;21.50;99.90;;;;;;5000707;28;20045;-85
2023/06/19 05:54:40;;;;;;;9.32;4.25;;;21.40;99.90;;;;;;4987947;28;20045;-85
2023/06/19 05:57:06;;;;;;;6.68;3.80;;;21.70;99.90;;;;;;5003302;28;20042;-85
2023/06/19 05:59:32;;;;;;;10.63;4.38;;;21.40;99.90;;;;;;5010830;28;20554;-86
2023/06/19 06:01:57;;;;;;;7.80;3.92;;;21.40;99.90;;;;;;4993486;28;20046;-86
2023/06/19 06:04:23;;;;;;;3.47;3.17;;;21.40;99.90;;;;;;5002584;28;20587;-86
2023/06/19 06:06:49;;;;;;;19.38;4.68;;;21.50;99.90;;;;;;5001433;28;20042;-87
2023/06/19 06:09:16;;;;;;;4.50;3.97;;;21.40;99.90;;;;;;5009672;28;20042;-87
2023/06/19 06:11:42;;;;;;;7.32;3.50;;;21.40;99.90;;;;;;5009233;28;20451;-87
2023/06/19 06:14:07;;;;;;;15.93;3.65;;;21.40;99.90;;;;;;5011706;28;20038;-85
2023/06/19 06:16:33;;;;;;;6.40;3.35;;;21.50;99.90;;;;;;5005145;28;20517;-85
2023/06/19 06:18:59;;;;;;;10.02;3.83;;;21.40;99.90;;;;;;5002962;28;20048;-85
2023/06/19 06:21:24;;;;;;;13.10;4.38;;;21.70;99.90;;;;;;5007996;28;20046;-85
2023/06/19 06:23:50;;;;;;;7.22;3.88;;;21.70;99.90;;;;;;4994195;28;20034;-86
2023/06/19 06:26:16;;;;;;;30.75;6.32;;;21.30;99.90;;;;;;5006277;28;20042;-85
2023/06/19 06:28:41;;;;;;;22.00;5.97;;;21.30;99.90;;;;;;5012289;28;20077;-85
2023/06/19 06:31:07;;;;;;;14.68;7.43;;;21.10;99.90;;;;;;4994802;28;20038;-86
2023/06/19 06:33:32;;;;;;;9.52;7.15;;;21.20;99.90;;;;;;5010749;28;20053;-85
2023/06/19 06:36:01;;;;;;;15.88;9.38;;;21.10;99.90;;;;;;5012232;28;20044;-85
2023/06/19 06:38:27;;;;;;;13.15;9.60;;;21.10;99.90;;;;;;5029140;28;20392;-85
2023/06/19 06:40:52;;;;;;;16.13;8.68;;;21.10;99.90;;;;;;5012088;28;20036;-86
2023/06/19 06:43:18;;;;;;;13.05;9.77;;;21.00;99.90;;;;;;5008045;28;20492;-86
2023/06/19 06:45:43;;;;;;;49.08;13.45;;;21.50;99.90;;;;;;5011564;28;20382;-87
2023/06/19 06:48:12;;;;;;;22.00;10.90;;;21.20;99.90;;;;;;5016471;28;20037;-85
2023/06/19 06:50:41;;;;;;;25.48;12.63;;;20.80;99.90;;;;;;5024396;28;20033;-87
2023/06/19 06:53:06;;;;;;;65.07;15.63;;;21.20;99.90;;;;;;5020613;28;20483;-86
2023/06/19 06:55:35;;;;;;;19.23;11.82;;;20.90;99.90;;;;;;5005738;28;20057;-85
2023/06/19 06:58:03;;;;;;;27.27;11.70;;;21.00;99.90;;;;;;4995598;28;20133;-86
2023/06/19 07:00:29;;;;;;;25.10;11.13;;;20.90;99.90;;;;;;5010943;28;20433;-87
2023/06/19 07:02:54;;;;;;;17.40;11.15;;;21.10;99.90;;;;;;5012505;28;20112;-85
2023/06/19 07:05:20;;;;;;;11.52;10.43;;;20.90;99.90;;;;;;5011447;28;20045;-88
2023/06/19 07:07:46;;;;;;;20.50;11.63;;;20.90;99.90;;;;;;4992866;28;20041;-88
2023/06/19 07:10:12;;;;;;;11.70;10.02;;;20.90;99.90;;;;;;4993828;28;20049;-86
2023/06/19 07:12:48;;;;;;;10.82;9.68;;;20.90;99.90;;;;;;4995809;28;20046;-86
2023/06/19 07:15:14;;;;;;;19.17;8.10;;;20.80;99.90;;;;;;4993539;28;20045;-85
2023/06/19 07:17:39;;;;;;;10.13;7.95;;;20.90;99.90;;;;;;5005310;28;20034;-86
2023/06/19 07:20:06;;;;;;;61.60;10.05;;;20.90;99.90;;;;;;5012658;28;20046;-86
2023/06/19 07:22:37;;;;;;;30.75;7.88;;;20.90;99.90;;;;;;5004303;28;20042;-86
2023/06/19 07:25:03;;;;;;;6.70;4.70;;;21.00;99.90;;;;;;4986801;28;20072;-86
2023/06/19 07:27:32;;;;;;;14.95;5.10;;;20.80;99.90;;;;;;4991365;28;20043;-86
2023/06/19 07:29:58;;;;;;;6.68;4.75;;;20.90;99.90;;;;;;4990301;28;20124;-85
2023/06/19 07:32:24;;;;;;;5.68;4.68;;;20.90;99.90;;;;;;5005613;28;20088;-86
2023/06/19 07:34:53;;;;;;;4.80;4.40;;;20.90;99.90;;;;;;4993986;28;20030;-87
2023/06/19 07:37:18;;;;;;;21.05;5.30;;;20.90;99.90;;;;;;5001954;28;20077;-87
2023/06/19 07:39:45;;;;;;;4.15;3.50;;;20.60;99.90;;;;;;5006098;28;20570;-85
2023/06/19 07:42:11;;;;;;;3.65;3.35;;;20.70;99.90;;;;;;5006898;28;20539;-85
2023/06/19 07:44:36;;;;;;;9.65;3.70;;;20.70;99.90;;;;;;5022328;28;20042;-87
2023/06/19 07:47:02;;;;;;;8.07;2.95;;;20.80;99.90;;;;;;5004010;28;20042;-86
2023/06/19 07:49:28;;;;;;;3.45;3.20;;;20.70;99.90;;;;;;4993006;28;20038;-84
2023/06/19 07:51:53;;;;;;;6.50;3.22;;;20.80;99.90;;;;;;5002148;28;20038;-84
2023/06/19 07:54:19;;;;;;;5.53;2.75;;;20.70;99.90;;;;;;5005107;28;20072;-84
2023/06/19 07:56:45;;;;;;;16.67;2.70;;;20.70;99.90;;;;;;5023246;28;20091;-83
2023/06/19 07:59:13;;;;;;;14.45;3.08;;;20.70;99.90;;;;;;4991265;28;20057;-83
2023/06/19 08:01:39;;;;;;;16.50;2.92;;;21.20;99.90;;;;;;4994652;28;20082;-85
2023/06/19 08:04:46;;;;;;;12.25;3.42;;;20.80;99.90;;;;;;5006343;28;20096;-87
2023/06/19 08:07:12;;;;;;;12.57;2.55;;;20.80;99.90;;;;;;5018378;28;20058;-85
2023/06/19 08:10:03;;;;;;;11.13;3.00;;;20.90;99.90;;;;;;5005751;28;20092;-87
2023/06/19 08:17:14;;;;;;;6.13;2.40;;;20.80;99.90;;;;;;5004371;28;20111;-86
2023/06/19 08:19:53;;;;;;;5.32;2.50;;;20.90;99.90;;;;;;4998180;28;20054;-86
2023/06/19 08:22:18;;;;;;;4.22;2.08;;;20.90;99.90;;;;;;5002388;28;20045;-86
2023/06/19 08:24:44;;;;;;;5.25;2.50;;;20.90;99.90;;;;;;5010702;28;20042;-85
2023/06/19 08:27:09;;;;;;;6.68;2.75;;;21.00;99.90;;;;;;4991051;28;20083;-85
2023/06/19 08:29:35;;;;;;;3.42;2.30;;;20.90;99.90;;;;;;5010210;28;20124;-86
2023/06/19 08:32:01;;;;;;;7.57;2.75;;;21.30;99.90;;;;;;5006653;28;20034;-86
2023/06/19 08:34:27;;;;;;;5.10;2.50;;;20.90;99.90;;;;;;5023024;28;20050;-86
2023/06/19 08:36:53;;;;;;;10.25;3.05;;;20.80;99.90;;;;;;5001708;28;20385;-88
2023/06/19 08:39:20;;;;;;;6.68;3.00;;;20.80;99.90;;;;;;4991906;28;20049;-87
2023/06/19 08:41:45;;;;;;;20.73;4.65;;;20.90;99.90;;;;;;5021972;28;20048;-86
2023/06/19 08:44:11;;;;;;;3.88;2.90;;;20.80;99.90;;;;;;4989396;28;20112;-85
2023/06/19 08:46:41;;;;;;;6.70;3.08;;;21.00;99.90;;;;;;5000600;28;20636;-85
2023/06/19 08:49:10;;;;;;;12.60;3.58;;;20.80;99.90;;;;;;4996455;28;20061;-86
2023/06/19 08:51:35;;;;;;;3.60;3.00;;;20.90;99.90;;;;;;5013635;28;20045;-85
2023/06/19 08:54:04;;;;;;;7.68;3.13;;;20.90;99.90;;;;;;5010349;28;20393;-85
2023/06/19 08:56:34;;;;;;;6.88;4.20;;;20.90;99.90;;;;;;4987280;28;20060;-85
2023/06/19 08:59:17;;;;;;;11.73;3.85;;;21.00;99.90;;;;;;5009712;28;20069;-85
2023/06/19 09:01:53;;;;;;;4.50;3.33;;;21.00;99.90;;;;;;5007756;28;20042;-88
2023/06/19 09:04:20;;;;;;;9.40;4.40;;;21.60;99.90;;;;;;5014424;28;20053;-84
2023/06/19 09:06:51;;;;;;;6.30;3.83;;;21.10;99.90;;;;;;5028205;28;20125;-85
2023/06/19 09:09:20;;;;;;;5.38;4.55;;;21.30;99.90;;;;;;5007980;28;20042;-86
2023/06/19 09:12:00;;;;;;;5.75;4.05;;;21.30;99.90;;;;;;4988133;28;20057;-86
2023/06/19 09:14:35;;;;;;;5.03;4.50;;;21.50;99.90;;;;;;4995192;28;20430;-87
2023/06/19 09:17:06;;;;;;;9.03;5.23;;;21.60;99.90;;;;;;5009188;28;20038;-89
2023/06/19 09:19:34;;;;;;;13.32;5.63;;;21.70;99.90;;;;;;5014001;28;20299;-85
2023/06/19 09:22:07;;;;;;;7.90;5.70;;;21.70;99.90;;;;;;5008097;28;20050;-86
2023/06/19 09:24:35;;;;;;;12.00;7.53;;;21.70;99.90;;;;;;5001491;28;20050;-85
2023/06/19 09:27:09;;;;;;;10.80;7.72;;;21.60;99.90;;;;;;4994046;28;20038;-85
2023/06/19 09:29:39;;;;;;;13.48;9.60;;;21.60;99.90;;;;;;5021221;28;20107;-84
2023/06/19 09:32:18;;;;;;;9.20;8.35;;;21.50;99.90;;;;;;5008580;28;20069;-84
2023/06/19 09:34:45;;;;;;;13.75;9.82;;;21.50;99.90;;;;;;5006002;28;20587;-84
2023/06/19 09:37:10;;;;;;;12.10;9.68;;;21.50;99.90;;;;;;5011362;28;20045;-85
2023/06/19 09:39:46;;;;;;;11.23;8.40;;;21.50;99.90;;;;;;5010661;28;20034;-86
2023/06/19 09:42:17;;;;;;;22.13;8.82;;;21.60;99.90;;;;;;4996875;28;20034;-87
2023/06/19 09:44:45;;;;;;;54.40;9.38;;;22.10;99.90;;;;;;4993820;28;20195;-85
2023/06/19 09:47:23;;;;;;;15.38;7.65;;;21.70;99.90;;;;;;4991905;28;20091;-86
2023/06/19 09:49:54;;;;;;;9.05;6.85;;;21.90;99.90;;;;;;5007288;28;20496;-85
2023/06/19 09:52:30;;;;;;;14.00;7.55;;;21.80;99.90;;;;;;5008422;28;20395;-86
2023/06/19 09:55:08;;;;;;;10.55;8.23;;;22.00;99.90;;;;;;5006942;28;20034;-85
2023/06/19 09:57:41;;;;;;;9.43;6.68;;;21.90;99.90;;;;;;4997203;28;20061;-84
2023/06/19 10:00:53;;;;;;;10.88;8.57;;;21.90;99.90;;;;;;5009786;28;20049;-86
2023/06/19 10:03:44;;;;;;;10.60;7.50;;;21.90;99.90;;;;;;4931078;28;20093;-88
2023/06/19 10:10:47;;;;;;;8.45;7.45;;;21.80;99.90;;;;;;4931215;29;20123;-85
2023/06/19 10:14:07;;;;;;;7.32;6.57;;;21.60;99.90;;;;;;4980893;28;20052;-85
2023/06/19 10:17:31;;;;;;;8.40;7.53;;;21.50;99.90;;;;;;5003034;28;20547;-86
2023/06/19 10:20:00;;;;;;;9.00;7.85;;;21.40;99.90;;;;;;4996912;28;20046;-86
2023/06/19 10:22:31;;;;;;;13.98;8.52;;;21.50;99.90;;;;;;5011414;28;20492;-85
2023/06/19 10:24:56;;;;;;;11.05;9.15;;;21.40;99.90;;;;;;5026153;28;20429;-85
2023/06/19 10:27:23;;;;;;;8.60;7.50;;;21.40;99.90;;;;;;4981553;28;20048;-86
2023/06/19 10:29:57;;;;;;;7.93;6.93;;;22.20;99.90;;;;;;5021713;28;20042;-86
2023/06/19 10:32:23;;;;;;;12.60;7.95;;;21.90;99.90;;;;;;5009412;28;20077;-86
2023/06/19 10:34:49;;;;;;;7.85;6.90;;;22.20;99.90;;;;;;5012729;28;20512;-87
2023/06/19 10:37:17;;;;;;;7.65;7.00;;;22.30;99.90;;;;;;5026660;28;20044;-85
2023/06/19 10:39:44;;;;;;;8.55;6.65;;;22.30;99.90;;;;;;5000394;28;20055;-87
2023/06/19 10:42:12;;;;;;;6.40;5.90;;;22.30;99.90;;;;;;5025633;28;20046;-86
2023/06/19 10:44:38;;;;;;;9.93;6.10;;;22.70;99.90;;;;;;4992723;28;20042;-86
2023/06/19 10:47:07;;;;;;;8.40;6.63;;;22.40;99.90;;;;;;5018039;28;20038;-87
2023/06/19 10:49:32;;;;;;;11.07;6.32;;;22.30;99.90;;;;;;5000622;28;20061;-87
2023/06/19 10:52:00;;;;;;;7.80;7.00;;;22.40;99.90;;;;;;5005096;28;20081;-87
2023/06/19 10:54:26;;;;;;;8.52;6.68;;;22.70;99.90;;;;;;5000288;28;20142;-86
2023/06/19 10:56:51;;;;;;;8.77;7.10;;;22.40;99.90;;;;;;5004900;28;20079;-86
2023/06/19 10:59:18;;;;;;;7.95;7.03;;;22.40;99.90;;;;;;4985945;28;20208;-86
2023/06/19 11:01:50;;;;;;;11.27;7.60;;;22.40;99.90;;;;;;5009433;28;20052;-86
2023/06/19 11:04:44;;;;;;;7.28;6.30;;;22.40;99.90;;;;;;5030361;28;20045;-87
2023/06/19 11:07:10;;;;;;;12.80;6.25;;;22.60;99.90;;;;;;5020707;28;20046;-86
2023/06/19 11:09:36;;;;;;;12.00;7.20;;;22.50;99.90;;;;;;4991638;28;20050;-86
2023/06/19 11:12:07;;;;;;;6.88;6.18;;;22.70;99.90;;;;;;5002499;28;20044;-86
2023/06/19 11:14:39;;;;;;;10.70;7.20;;;22.60;99.90;;;;;;5009413;28;20109;-86
2023/06/19 11:17:06;;;;;;;11.45;7.03;;;22.80;99.90;;;;;;5026776;28;20053;-85
2023/06/19 11:19:35;;;;;;;6.38;5.28;;;22.90;99.90;;;;;;5023256;28;20042;-85
2023/06/19 11:22:03;;;;;;;6.78;5.47;;;23.10;99.90;;;;;;4996775;28;20504;-86
2023/06/19 11:24:29;;;;;;;14.02;5.65;;;23.30;99.90;;;;;;5008180;28;20558;-86
2023/06/19 11:26:56;;;;;;;7.97;6.13;;;23.40;99.90;;;;;;5020451;28;20046;-85
2023/06/19 11:29:24;;;;;;;8.43;5.00;;;23.60;99.90;;;;;;4991322;28;20120;-86
2023/06/19 11:31:53;;;;;;;7.05;5.60;;;23.70;99.90;;;;;;5014008;28;20045;-86
2023/06/19 11:34:19;;;;;;;9.57;6.28;;;23.90;99.90;;;;;;5003490;28;20049;-87
2023/06/19 11:36:45;;;;;;;10.10;5.32;;;23.90;99.90;;;;;;5011691;28;20656;-86
2023/06/19 11:39:13;;;;;;;10.27;7.07;;;24.10;99.90;;;;;;4993878;28;20061;-85
2023/06/19 11:41:39;;;;;;;11.35;6.82;;;24.30;99.90;;;;;;5010615;28;20396;-85
2023/06/19 11:44:11;;;;;;;15.95;8.20;;;24.10;99.90;;;;;;4987683;28;20105;-86
2023/06/19 11:46:37;;;;;;;8.90;7.88;;;24.10;99.90;;;;;;5021959;28;20038;-86
2023/06/19 11:49:18;;;;;;;14.57;7.75;;;24.40;99.90;;;;;;4975437;28;20070;-87
2023/06/19 11:51:44;;;;;;;9.13;6.68;;;23.90;99.90;;;;;;5006822;28;20039;-86
2023/06/19 11:54:12;;;;;;;7.88;6.78;;;23.90;99.90;;;;;;4993471;28;20037;-85
2023/06/19 11:56:38;;;;;;;13.70;6.95;;;24.10;99.90;;;;;;5009921;28;20536;-87
2023/06/19 11:59:04;;;;;;;10.45;8.07;;;24.00;99.90;;;;;;5002007;28;20034;-85
2023/06/19 12:01:34;;;;;;;25.23;9.73;;;23.90;99.90;;;;;;4993790;28;20041;-87
2023/06/19 12:04:01;;;;;;;12.85;7.70;;;23.70;99.90;;;;;;4992357;28;20041;-85
2023/06/19 12:06:27;;;;;;;10.80;6.72;;;23.80;99.90;;;;;;5017383;28;20072;-86
2023/06/19 12:08:53;;;;;;;10.18;7.35;;;23.70;99.90;;;;;;5005483;28;20676;-86
2023/06/19 12:11:19;;;;;;;16.25;8.70;;;24.20;99.90;;;;;;5021925;28;20088;-86
2023/06/19 12:13:45;;;;;;;10.70;7.80;;;24.30;99.90;;;;;;5008585;28;20038;-85
2023/06/19 12:16:11;;;;;;;12.45;7.60;;;24.00;99.90;;;;;;5001467;28;20045;-86
2023/06/19 12:18:37;;;;;;;14.93;7.70;;;23.90;99.90;;;;;;5003638;28;20092;-87
2023/06/19 12:21:03;;;;;;;9.00;6.82;;;23.90;99.90;;;;;;4987912;28;20045;-86
2023/06/19 12:23:29;;;;;;;8.40;6.45;;;23.90;99.90;;;;;;5007338;28;20084;-86
2023/06/19 12:25:55;;;;;;;14.80;7.65;;;23.90;99.90;;;;;;4993023;28;20050;-86
2023/06/19 12:28:21;;;;;;;9.13;7.40;;;23.90;99.90;;;;;;5013539;28;20049;-86
2023/06/19 12:30:51;;;;;;;8.52;7.68;;;23.90;99.90;;;;;;5016761;28;20567;-86
2023/06/19 12:33:17;;;;;;;10.75;6.68;;;23.90;99.90;;;;;;5021023;28;20050;-86
2023/06/19 12:35:44;;;;;;;8.77;7.78;;;24.00;99.90;;;;;;5013224;28;20493;-85
2023/06/19 12:38:10;;;;;;;8.85;7.57;;;24.20;99.90;;;;;;5007683;28;20130;-86
2023/06/19 12:40:36;;;;;;;13.98;7.50;;;24.70;99.90;;;;;;5012310;28;20124;-87
2023/06/19 12:43:02;;;;;;;8.50;6.82;;;24.60;99.90;;;;;;4994149;28;20042;-87
2023/06/19 12:45:28;;;;;;;7.43;6.65;;;24.80;99.90;;;;;;5013139;28;20489;-86
2023/06/19 12:47:54;;;;;;;8.48;6.45;;;24.90;99.90;;;;;;5012468;28;20076;-86
2023/06/19 12:50:23;;;;;;;9.75;6.78;;;25.10;99.90;;;;;;4991833;28;20061;-87
2023/06/19 12:52:49;;;;;;;12.02;7.85;;;25.10;99.90;;;;;;4991246;28;20029;-88
2023/06/19 12:55:35;;;;;;;11.23;6.70;;;25.20;99.90;;;;;;4994965;28;20117;-87
2023/06/19 12:58:35;;;;;;;11.57;7.90;;;25.10;99.90;;;;;;5012495;28;20096;-86
2023/06/19 13:01:15;;;;;;;8.55;7.30;;;25.30;99.90;;;;;;4991653;28;20034;-87